.
WxDataArchive / Data Records for 2015-05-07
2015-05-06 May 2015 2015-05-08

Data Records for Thursday, 07 May 2015

Time	Temp	Chill	HIndex	Humid	Dewpt	 Wind 	HiWind	WindDir	Rain 	Barom
-----	----	-----	------	-----	-----	------	------	-------	-----	-----
00:00	63.1	63.1	63.1	84	58.2	0	2	68	0.00	30.116 
00:05	62.9	62.9	62.9	84	58.0	1	3	68	0.00	30.116 
00:10	62.7	62.7	62.7	84	57.8	1	3	68	0.00	30.116 
00:15	62.7	62.7	62.7	85	58.1	1	3	68	0.00	30.114 
00:20	62.6	62.6	62.6	85	58.0	1	3	45	0.00	30.114 
00:25	62.4	62.4	62.4	85	57.8	1	3	90	0.00	30.114 
00:30	62.3	62.3	62.3	85	57.7	1	3	90	0.00	30.114 
00:35	62.1	62.1	62.1	86	57.9	1	4	68	0.00	30.114 
00:40	62.0	62.0	62.0	86	57.8	0	3	68	0.00	30.114 
00:45	61.8	61.8	61.8	86	57.6	1	3	68	0.00	30.118 
00:50	61.6	61.6	61.6	86	57.4	0	2	68	0.00	30.118 
00:55	61.5	61.5	61.5	87	57.6	0	2	68	0.00	30.118 
01:00	61.3	61.3	61.3	87	57.4	0	2	68	0.00	30.121 
01:05	61.2	61.2	61.2	87	57.3	0	1	68	0.00	30.121 
01:10	61.0	61.0	61.0	87	57.1	0	2	68	0.00	30.121 
01:15	60.9	60.9	60.9	88	57.3	0	2	68	0.00	30.118 
01:20	60.7	60.7	60.7	88	57.1	0	2	68	0.00	30.118 
01:25	60.5	60.5	60.5	88	56.9	0	0	---	0.00	30.118 
01:30	60.4	60.4	60.4	88	56.8	0	1	68	0.00	30.120 
01:35	60.2	60.2	60.2	88	56.6	0	0	---	0.00	30.120 
01:40	60.1	60.1	60.1	88	56.5	0	1	68	0.00	30.120 
01:45	59.9	59.9	59.9	89	56.6	0	1	68	0.00	30.115 
01:50	59.8	59.8	59.8	89	56.5	0	1	68	0.00	30.115 
01:55	59.6	59.6	59.6	89	56.4	0	1	68	0.00	30.115 
02:00	59.5	59.5	59.5	89	56.3	0	0	---	0.00	30.111 
02:05	59.3	59.3	59.3	90	56.4	0	1	68	0.00	30.111 
02:10	59.2	59.2	59.2	90	56.3	0	1	68	0.00	30.111 
02:15	59.2	59.2	59.2	90	56.3	0	1	68	0.00	30.104 
02:20	59.0	59.0	59.0	90	56.1	0	1	68	0.00	30.104 
02:25	58.9	58.9	58.9	91	56.3	0	1	68	0.00	30.104 
02:30	58.7	58.7	58.7	91	56.1	0	2	68	0.00	30.101 
02:35	58.7	58.7	58.7	91	56.1	0	1	68	0.00	30.101 
02:40	58.6	58.6	58.6	91	56.0	0	1	68	0.00	30.101 
02:45	58.4	58.4	58.4	91	55.8	0	1	68	0.00	30.102 
02:50	58.3	58.3	58.3	91	55.7	0	0	---	0.00	30.102 
02:55	58.3	58.3	58.3	91	55.7	0	1	68	0.00	30.102 
03:00	58.1	58.1	58.1	92	55.8	0	1	68	0.00	30.098 
03:05	58.1	58.1	58.1	92	55.8	0	0	---	0.00	30.098 
03:10	58.0	58.0	58.0	92	55.7	0	0	---	0.00	30.098 
03:15	57.8	57.8	57.8	92	55.5	0	0	---	0.00	30.092 
03:20	57.8	57.8	57.8	92	55.5	0	2	68	0.00	30.092 
03:25	57.6	57.6	57.6	92	55.3	0	0	---	0.00	30.092 
03:30	57.6	57.6	57.6	92	55.3	0	1	68	0.00	30.088 
03:35	57.5	57.5	57.5	92	55.2	0	0	---	0.00	30.088 
03:40	57.5	57.5	57.5	92	55.2	0	0	---	0.00	30.088 
03:45	57.3	57.3	57.3	92	55.0	0	1	68	0.00	30.090 
03:50	57.2	57.2	57.2	92	54.9	0	0	---	0.00	30.090 
03:55	57.2	57.2	57.2	92	54.9	0	0	---	0.00	30.090 
04:00	57.0	57.0	57.0	92	54.7	0	0	---	0.00	30.091 
04:05	56.9	56.9	56.9	92	54.6	0	1	68	0.00	30.091 
04:10	56.9	56.9	56.9	92	54.6	0	0	---	0.00	30.091 
04:15	56.7	56.7	56.7	92	54.4	0	0	---	0.00	30.094 
04:20	56.7	56.7	56.7	92	54.4	0	0	---	0.00	30.094 
04:25	56.6	56.6	56.6	92	54.3	0	0	---	0.00	30.094 
04:30	56.5	56.5	56.5	92	54.2	0	0	---	0.00	30.091 
04:35	56.3	56.3	56.3	92	54.0	0	0	---	0.00	30.091 
04:40	56.3	56.3	56.3	92	54.0	0	0	---	0.00	30.091 
04:45	56.3	56.3	56.3	93	54.3	0	1	68	0.00	30.088 
04:50	56.2	56.2	56.2	93	54.2	0	0	---	0.00	30.088 
04:55	56.2	56.2	56.2	93	54.2	0	0	---	0.00	30.088 
05:00	56.0	56.0	56.0	93	54.0	0	0	---	0.00	30.087 
05:05	55.9	55.9	55.9	93	53.9	0	0	---	0.00	30.087 
05:10	55.9	55.9	55.9	93	53.9	0	0	---	0.00	30.087 
05:15	55.9	55.9	55.9	93	53.9	0	0	---	0.00	30.084 
05:20	56.0	56.0	56.0	93	54.0	0	0	---	0.00	30.084 
05:25	55.9	55.9	55.9	93	53.9	0	0	---	0.00	30.084 
05:30	55.9	55.9	55.9	93	53.9	0	0	---	0.00	30.079 
05:35	55.9	55.9	55.9	93	53.9	0	0	---	0.00	30.079 
05:40	55.9	55.9	55.9	93	53.9	0	0	---	0.00	30.079 
05:45	55.9	55.9	55.9	93	53.9	0	1	68	0.00	30.080 
05:50	55.9	55.9	55.9	93	53.9	0	1	68	0.00	30.080 
05:55	55.7	55.7	55.7	93	53.7	0	0	---	0.00	30.080 
06:00	55.7	55.7	55.7	93	53.7	0	0	---	0.00	30.085 
06:05	55.6	55.6	55.6	93	53.6	0	0	---	0.00	30.085 
06:10	55.6	55.6	55.6	93	53.6	0	0	---	0.00	30.085 
06:15	55.4	55.4	55.4	93	53.4	0	0	---	0.00	30.086 
06:20	55.4	55.4	55.4	93	53.4	0	0	---	0.00	30.086 
06:25	55.3	55.3	55.3	93	53.3	0	0	---	0.00	30.086 
06:30	55.3	55.3	55.3	94	53.6	0	0	---	0.00	30.087 
06:35	55.1	55.1	55.1	93	53.1	0	0	---	0.00	30.087 
06:40	55.1	55.1	55.1	94	53.4	0	0	---	0.00	30.087 
06:45	55.1	55.1	55.1	94	53.4	0	0	---	0.00	30.089 
06:50	55.1	55.1	55.1	94	53.4	0	0	---	0.00	30.089 
06:55	55.1	55.1	55.1	94	53.4	0	0	---	0.00	30.089 
07:00	55.1	55.1	55.1	94	53.4	0	1	68	0.00	30.091 
07:05	55.3	55.3	55.3	94	53.6	0	1	68	0.00	30.091 
07:10	55.3	55.3	55.3	94	53.6	0	2	68	0.00	30.091 
07:15	55.4	55.4	55.4	94	53.7	0	2	68	0.00	30.092 
07:20	55.6	55.6	55.6	94	53.9	0	2	68	0.00	30.092 
07:25	55.7	55.7	55.7	94	54.0	0	2	68	0.00	30.092 
07:30	55.9	55.9	55.9	94	54.2	1	3	68	0.00	30.093 
07:35	56.2	56.2	56.2	94	54.5	0	1	68	0.00	30.093 
07:40	56.3	56.3	56.3	93	54.3	0	2	68	0.00	30.093 
07:45	56.6	56.6	56.6	93	54.6	0	2	68	0.00	30.097 
07:50	57.0	57.0	57.0	93	55.0	0	2	68	0.00	30.097 
07:55	57.3	57.3	57.3	92	55.0	1	3	68	0.00	30.097 
08:00	57.8	57.8	57.8	92	55.5	1	3	68	0.00	30.098 
08:05	58.0	58.0	58.0	91	55.4	1	4	68	0.00	30.098 
08:10	58.4	58.4	58.4	90	55.5	1	3	68	0.00	30.098 
08:15	58.9	58.9	58.9	90	56.0	1	3	68	0.00	30.103 
08:20	59.2	59.2	59.2	89	56.0	1	2	68	0.00	30.103 
08:25	59.6	59.6	59.6	88	56.0	0	2	68	0.00	30.103 
08:30	60.1	60.1	60.1	88	56.5	0	3	68	0.00	30.105 
08:35	60.5	60.5	60.5	87	56.6	0	2	68	0.00	30.105 
08:40	61.3	61.3	61.3	86	57.1	0	1	68	0.00	30.105 
08:45	61.8	61.8	61.8	85	57.2	0	2	68	0.00	30.103 
08:50	62.4	62.4	62.4	84	57.5	0	1	68	0.00	30.103 
08:55	62.7	62.7	62.7	82	57.1	1	4	68	0.00	30.103 
09:00	63.1	63.1	63.1	83	57.8	0	2	68	0.00	30.102 
09:05	63.7	63.7	63.7	83	58.4	0	1	68	0.00	30.102 
09:10	64.3	64.3	64.3	81	58.3	1	3	68	0.00	30.102 
09:15	64.7	64.7	64.7	80	58.4	1	3	68	0.00	30.103 
09:20	65.2	65.2	65.2	80	58.9	1	3	68	0.00	30.103 
09:25	65.8	65.8	65.8	79	59.1	0	3	68	0.00	30.103 
09:30	66.1	66.1	66.1	78	59.0	1	4	68	0.00	30.102 
09:35	66.6	66.6	66.6	78	59.5	0	2	68	0.00	30.102 
09:40	67.3	67.3	67.3	77	59.8	1	3	68	0.00	30.102 
09:45	67.8	67.8	67.8	76	59.9	1	3	68	0.00	30.100 
09:50	68.1	68.1	68.1	75	59.9	1	6	68	0.00	30.100 
09:55	68.6	68.6	68.6	74	60.0	1	3	68	0.00	30.100 
10:00	68.9	68.9	68.9	74	60.3	1	4	68	0.00	30.101 
10:05	69.4	69.4	69.4	74	60.7	1	4	68	0.00	30.101 
10:10	69.9	69.9	69.9	72	60.4	1	3	90	0.00	30.101 
10:15	70.6	70.6	70.6	71	60.7	1	3	90	0.00	30.101 
10:20	71.1	71.1	71.1	70	60.8	1	4	90	0.00	30.101 
10:25	71.6	71.6	71.6	69	60.9	1	3	90	0.00	30.101 
10:30	72.3	72.3	72.3	68	61.1	1	5	90	0.00	30.099 
10:35	72.7	72.7	72.7	68	61.5	1	5	90	0.00	30.099 
10:40	73.0	73.0	73.0	67	61.4	1	4	90	0.00	30.099 
10:45	73.3	73.3	73.3	67	61.7	1	2	90	0.00	30.093 
10:50	74.0	74.0	74.0	67	62.3	0	4	90	0.00	30.093 
10:55	74.6	74.6	74.6	64	61.6	2	4	90	0.00	30.093 
11:00	74.9	74.9	74.9	64	61.9	0	2	90	0.00	30.091 
11:05	75.8	75.8	77.8	62	61.8	1	4	90	0.00	30.091 
11:10	76.3	76.3	78.2	62	62.3	1	3	90	0.00	30.091 
11:15	77.2	77.2	79.0	62	63.2	1	3	90	0.00	30.089 
11:20	77.9	77.9	79.5	57	61.4	0	2	90	0.00	30.089 
11:25	78.8	78.8	80.3	57	62.3	0	2	202	0.00	30.089 
11:30	79.4	79.4	80.6	54	61.3	1	3	180	0.00	30.082 
11:35	80.1	80.1	81.2	53	61.4	0	3	135	0.00	30.082 
11:40	80.5	80.5	81.4	51	60.7	1	3	112	0.00	30.082 
11:45	81.1	81.1	82.3	54	62.9	0	2	135	0.00	30.078 
11:50	81.6	81.6	82.5	51	61.7	0	3	90	0.00	30.078 
11:55	81.8	81.8	82.6	50	61.3	1	4	68	0.00	30.078 
12:00	82.2	82.2	82.8	49	61.1	0	2	90	0.00	30.075 
12:05	82.6	82.6	83.6	51	62.6	0	1	90	0.00	30.075 
12:10	83.2	83.2	83.6	47	60.8	0	1	90	0.00	30.075 
12:15	83.8	83.8	84.9	50	63.1	0	1	90	0.00	30.069 
12:20	84.3	84.3	84.5	45	60.6	1	3	90	0.00	30.069 
12:25	84.3	84.3	84.3	44	60.0	2	6	90	0.00	30.069 
12:30	84.5	84.5	84.3	43	59.5	0	3	90	0.00	30.063 
12:35	84.7	84.7	84.0	40	57.7	0	2	90	0.00	30.063 
12:40	84.9	84.9	84.2	40	57.8	1	4	90	0.00	30.063 
12:45	85.3	85.3	84.5	39	57.5	1	3	90	0.00	30.061 
12:50	85.5	85.5	84.9	40	58.4	1	4	90	0.00	30.061 
12:55	85.5	85.5	84.3	37	56.2	1	4	112	0.00	30.061 
13:00	85.5	85.5	84.3	37	56.2	1	6	90	0.00	30.055 
13:05	85.5	85.5	83.8	34	53.9	1	4	90	0.00	30.055 
13:10	85.3	85.3	83.6	34	53.7	1	4	90	0.00	30.055 
13:15	84.9	84.9	83.3	34	53.4	1	4	90	0.00	30.052 
13:20	84.5	84.5	83.6	39	56.8	0	2	90	0.00	30.052 
13:25	84.5	84.5	83.6	39	56.8	0	1	90	0.00	30.052 
13:30	85.3	85.3	83.8	35	54.5	0	2	90	0.00	30.046 
13:35	85.7	85.7	83.6	31	51.5	1	4	90	0.00	30.046 
13:40	85.7	85.7	83.9	33	53.2	1	4	90	0.00	30.046 
13:45	84.9	84.9	83.0	32	51.7	0	1	90	0.00	30.040 
13:50	84.3	84.3	83.4	39	56.6	0	2	90	0.00	30.040 
13:55	84.1	84.1	82.8	36	54.2	0	2	90	0.00	30.040 
14:00	84.5	84.5	83.5	38	56.1	0	2	90	0.00	30.034 
14:05	84.7	84.7	83.4	36	54.8	0	2	90	0.00	30.034 
14:10	85.3	85.3	83.5	33	52.9	1	3	90	0.00	30.034 
14:15	85.1	85.1	83.6	35	54.3	0	3	90	0.00	30.032 
14:20	84.5	84.5	83.0	35	53.8	0	2	90	0.00	30.032 
14:25	84.0	84.0	82.8	37	54.9	0	1	90	0.00	30.032 
14:30	84.1	84.1	82.7	35	53.5	0	2	90	0.00	30.028 
14:35	84.9	84.9	83.4	35	54.2	1	6	248	0.00	30.028 
14:40	85.5	85.5	83.8	34	53.9	1	2	90	0.00	30.028 
14:45	85.7	85.7	83.6	31	51.5	0	2	90	0.00	30.019 
14:50	85.7	85.7	83.7	32	52.4	1	2	90	0.00	30.019 
14:55	85.5	85.5	83.8	34	53.9	1	3	112	0.00	30.019 
15:00	85.7	85.7	84.4	36	55.6	1	3	68	0.00	30.018 
15:05	85.7	85.7	83.7	32	52.4	0	2	68	0.00	30.018 
15:10	85.3	85.3	83.6	34	53.7	0	1	68	0.00	30.018 
15:15	85.5	85.5	84.0	35	54.7	0	3	68	0.00	30.015 
15:20	85.5	85.5	84.0	35	54.7	0	2	68	0.00	30.015 
15:25	84.9	84.9	83.4	35	54.2	0	1	68	0.00	30.015 
15:30	84.1	84.1	82.7	35	53.5	0	2	68	0.00	30.013 
15:35	83.6	83.6	82.6	38	55.3	0	2	68	0.00	30.013 
15:40	83.0	83.0	82.5	41	56.8	0	4	68	0.00	30.013 
15:45	82.2	82.2	82.0	43	57.4	0	1	68	0.00	30.011 
15:50	82.2	82.2	82.3	45	58.7	0	1	68	0.00	30.011 
15:55	82.6	82.6	82.0	40	55.8	0	2	68	0.00	30.011 
16:00	83.4	83.4	83.2	43	58.5	0	1	68	0.00	30.001 
16:05	84.0	84.0	83.1	39	56.3	0	1	68	0.00	30.001 
16:10	84.1	84.1	82.7	35	53.5	0	2	68	0.00	30.001 
16:15	85.1	85.1	83.9	37	55.9	0	1	68	0.00	29.993 
16:20	85.9	85.9	84.4	35	55.0	1	3	90	0.00	29.993 
16:25	86.1	86.1	84.6	35	55.2	0	2	90	0.00	29.993 
16:30	86.3	86.3	85.4	38	57.7	0	1	90	0.00	29.986 
16:35	86.3	86.3	84.6	34	54.6	0	3	90	0.00	29.986 
16:40	86.3	86.3	84.8	35	55.4	0	2	90	0.00	29.986 
16:45	86.7	86.7	85.2	35	55.7	0	1	90	0.00	29.983 
16:50	87.0	87.0	85.2	33	54.4	0	2	90	0.00	29.983 
16:55	87.0	87.0	85.2	33	54.4	0	3	90	0.00	29.983 
17:00	86.3	86.3	84.5	33	53.8	0	1	90	0.00	29.979 
17:05	85.7	85.7	84.4	36	55.6	0	1	90	0.00	29.979 
17:10	85.1	85.1	83.6	35	54.3	0	1	90	0.00	29.979 
17:15	84.7	84.7	83.1	34	53.2	0	1	90	0.00	29.976 
17:20	84.9	84.9	83.6	36	54.9	0	2	90	0.00	29.976 
17:25	84.9	84.9	83.3	34	53.4	1	3	90	0.00	29.976 
17:30	84.5	84.5	83.3	37	55.3	0	3	90	0.00	29.974 
17:35	84.1	84.1	83.1	38	55.7	0	0	---	0.00	29.974 
17:40	83.6	83.6	82.8	39	56.0	0	0	---	0.00	29.974 
17:45	83.4	83.4	82.3	37	54.4	0	1	90	0.00	29.973 
17:50	83.2	83.2	82.3	38	54.9	0	0	---	0.00	29.973 
17:55	83.0	83.0	81.8	36	53.3	0	2	90	0.00	29.973 
18:00	83.0	83.0	82.0	37	54.0	0	1	90	0.00	29.969 
18:05	82.8	82.8	81.8	37	53.8	0	2	90	0.00	29.969 
18:10	82.8	82.8	81.9	38	54.6	0	1	90	0.00	29.969 
18:15	82.6	82.6	82.1	41	56.5	0	1	90	0.00	29.959 
18:20	82.4	82.4	81.6	38	54.2	0	1	90	0.00	29.959 
18:25	82.6	82.6	81.7	38	54.4	0	1	90	0.00	29.959 
18:30	82.6	82.6	81.7	38	54.4	0	0	---	0.00	29.957 
18:35	82.8	82.8	81.6	35	52.3	0	1	90	0.00	29.957 
18:40	83.0	83.0	81.6	34	51.7	0	2	90	0.00	29.957 
18:45	83.4	83.4	82.2	36	53.6	0	2	90	0.00	29.955 
18:50	83.4	83.4	82.1	35	52.8	0	1	90	0.00	29.955 
18:55	83.6	83.6	82.4	36	53.8	0	2	90	0.00	29.955 
19:00	83.6	83.6	82.4	36	53.8	0	1	90	0.00	29.948 
19:05	83.6	83.6	82.8	39	56.0	0	0	---	0.00	29.948 
19:10	83.4	83.4	82.3	37	54.4	0	1	90	0.00	29.948 
19:15	83.2	83.2	82.1	37	54.2	0	1	90	0.00	29.942 
19:20	82.8	82.8	81.8	37	53.8	0	1	90	0.00	29.942 
19:25	82.6	82.6	81.5	36	52.9	0	1	90	0.00	29.942 
19:30	82.4	82.4	81.4	37	53.5	0	0	---	0.00	29.941 
19:35	82.4	82.4	81.4	37	53.5	0	0	---	0.00	29.941 
19:40	82.4	82.4	81.4	37	53.5	0	1	90	0.00	29.941 
19:45	82.4	82.4	81.4	37	53.5	0	2	90	0.00	29.942 
19:50	82.4	82.4	81.4	37	53.5	0	2	90	0.00	29.942 
19:55	82.2	82.2	81.5	39	54.7	0	1	90	0.00	29.942 
20:00	81.8	81.8	81.2	39	54.4	0	0	---	0.00	29.944 
20:05	81.4	81.4	81.0	40	54.7	0	0	---	0.00	29.944 
20:10	80.9	80.9	80.6	40	54.3	0	0	---	0.00	29.944 
20:15	80.7	80.7	80.6	42	55.4	0	0	---	0.00	29.940 
20:20	80.3	80.3	80.3	42	55.1	0	0	---	0.00	29.940 
20:25	79.9	79.9	80.1	43	55.4	0	0	---	0.00	29.940 
20:30	79.6	79.6	80.0	44	55.7	0	0	---	0.00	29.942 
20:35	79.2	79.2	79.7	44	55.4	0	0	---	0.00	29.942 
20:40	78.6	78.6	79.3	44	54.8	0	0	---	0.00	29.942 
20:45	78.1	78.1	79.0	45	55.0	0	0	---	0.00	29.948 
20:50	77.6	77.6	78.8	46	55.2	0	0	---	0.00	29.948 
20:55	77.2	77.2	78.7	48	56.0	0	0	---	0.00	29.948 
21:00	76.7	76.7	78.4	48	55.5	0	0	---	0.00	29.950 
21:05	76.3	76.3	78.2	49	55.7	0	0	---	0.00	29.950 
21:10	76.0	76.0	78.1	50	56.0	0	0	---	0.00	29.950 
21:15	75.4	75.4	77.8	53	57.1	0	0	---	0.00	29.950 
21:20	75.1	75.1	77.6	52	56.3	0	0	---	0.00	29.950 
21:25	74.6	74.6	74.6	54	56.8	0	0	---	0.00	29.950 
21:30	74.4	74.4	74.4	53	56.1	0	0	---	0.00	29.949 
21:35	74.4	74.4	74.4	53	56.1	0	1	90	0.00	29.949 
21:40	74.4	74.4	74.4	52	55.6	0	0	---	0.00	29.949 
21:45	74.4	74.4	74.4	53	56.1	0	0	---	0.00	29.950 
21:50	74.2	74.2	74.2	52	55.4	0	0	---	0.00	29.950 
21:55	74.0	74.0	74.0	54	56.3	0	0	---	0.00	29.950 
22:00	73.9	73.9	73.9	54	56.2	0	0	---	0.00	29.952 
22:05	73.5	73.5	73.5	55	56.3	0	0	---	0.00	29.952 
22:10	73.2	73.2	73.2	56	56.5	0	0	---	0.00	29.952 
22:15	72.7	72.7	72.7	58	57.1	0	0	---	0.00	29.949 
22:20	72.1	72.1	72.1	60	57.4	0	0	---	0.00	29.949 
22:25	71.6	71.6	71.6	60	57.0	0	0	---	0.00	29.949 
22:30	71.3	71.3	71.3	61	57.1	0	0	---	0.00	29.951 
22:35	70.8	70.8	70.8	61	56.7	0	0	---	0.00	29.951 
22:40	70.4	70.4	70.4	62	56.7	0	0	---	0.00	29.951 
22:45	70.1	70.1	70.1	64	57.3	0	0	---	0.00	29.957 
22:50	69.8	69.8	69.8	65	57.5	0	0	---	0.00	29.957 
22:55	69.4	69.4	69.4	65	57.1	0	0	---	0.00	29.957 
23:00	69.1	69.1	69.1	66	57.3	0	0	---	0.00	29.959 
23:05	68.8	68.8	68.8	68	57.8	0	0	---	0.00	29.959 
23:10	68.4	68.4	68.4	69	57.8	0	0	---	0.00	29.959 
23:15	68.3	68.3	68.3	68	57.3	0	0	---	0.00	29.955 
23:20	67.9	67.9	67.9	68	56.9	0	0	---	0.00	29.955 
23:25	67.8	67.8	67.8	68	56.8	0	0	---	0.00	29.955 
23:30	67.6	67.6	67.6	69	57.1	0	0	---	0.00	29.953 
23:35	67.6	67.6	67.6	69	57.1	0	0	---	0.00	29.953 
23:40	67.3	67.3	67.3	70	57.2	0	0	---	0.00	29.953 
23:45	67.1	67.1	67.1	71	57.4	0	0	---	0.00	29.959 
23:50	66.9	66.9	66.9	71	57.2	0	0	---	0.00	29.959 
23:55	66.8	66.8	66.8	72	57.5	0	0	---	0.00	29.959 

CoCoRaHS
IN-AL-39
A2 Web Hosting
Creative Commons License
GoDaddy
search engine by freefind advanced

loaded 2018-11-12 19:07:51 • last modified 2010-11-18 10:43:29
Privacy PolicyDisclaimer
• wx.awcolley.com is powered by PmWiki v.2002016 •
• all content (unless otherwise noted) © 2018 A W Colley